createdAt,value
2019-05-29T00:00:35.383Z,3.80
2019-05-29T00:02:12.074Z,3.80
2019-05-29T00:03:48.914Z,4.10
2019-05-29T00:05:25.275Z,4.10
2019-05-29T00:07:00.780Z,4.30
2019-05-29T00:08:37.096Z,3.95
2019-05-29T00:10:12.916Z,4.30
2019-05-29T00:11:49.957Z,4.17
2019-05-29T00:13:25.482Z,4.03
2019-05-29T00:15:01.778Z,4.10
2019-05-29T00:16:37.292Z,3.55
2019-05-29T00:19:40.464Z,4.23
2019-05-29T00:21:17.112Z,3.60
2019-05-29T00:22:52.620Z,3.80
2019-05-29T00:24:29.196Z,3.62
2019-05-29T00:26:06.331Z,3.67
2019-05-29T00:27:43.647Z,4.20
2019-05-29T00:29:19.532Z,3.33
2019-05-29T00:30:56.213Z,2.95
2019-05-29T00:32:31.837Z,3.50
2019-05-29T00:34:08.951Z,2.90
2019-05-29T00:35:44.753Z,3.20
2019-05-29T00:37:21.997Z,3.40
2019-05-29T00:38:57.674Z,3.15
2019-05-29T00:40:33.967Z,3.65
2019-05-29T00:42:09.478Z,3.33
2019-05-29T00:43:45.774Z,3.27
2019-05-29T00:45:21.406Z,3.10
2019-05-29T00:47:00.355Z,3.27
2019-05-29T00:48:35.884Z,2.95
2019-05-29T00:50:12.441Z,3.43
2019-05-29T00:51:47.997Z,3.23
2019-05-29T00:53:24.298Z,3.23
2019-05-29T00:55:00.096Z,3.15
2019-05-29T00:56:36.420Z,2.77
2019-05-29T00:58:12.816Z,3.00
2019-05-29T00:59:49.116Z,2.63
2019-05-29T01:01:24.637Z,3.17
2019-05-29T01:03:01.017Z,2.90
2019-05-29T01:04:36.548Z,2.40
2019-05-29T01:06:13.954Z,2.67
2019-05-29T01:07:49.483Z,2.70
2019-05-29T01:09:25.861Z,2.83
2019-05-29T01:11:01.385Z,2.40
2019-05-29T01:12:37.690Z,2.70
2019-05-29T01:14:13.280Z,2.70
2019-05-29T01:15:50.723Z,3.10
2019-05-29T01:17:26.245Z,3.08
2019-05-29T01:19:20.352Z,2.52
2019-05-29T01:20:56.135Z,2.77
2019-05-29T01:22:32.773Z,2.30
2019-05-29T01:24:08.296Z,2.30
2019-05-29T01:25:44.673Z,2.47
2019-05-29T01:27:20.880Z,2.30
2019-05-29T01:28:57.290Z,2.70
2019-05-29T01:30:34.463Z,2.40
2019-05-29T01:32:10.807Z,2.70
2019-05-29T01:33:46.351Z,2.70
2019-05-29T01:35:24.168Z,2.23
2019-05-29T01:36:59.698Z,2.10
2019-05-29T01:38:36.018Z,2.20
2019-05-29T01:40:20.062Z,2.10
2019-05-29T01:41:49.544Z,1.97
2019-05-29T01:43:25.061Z,1.93
2019-05-29T01:45:07.668Z,2.10
2019-05-29T01:46:38.586Z,1.70
2019-05-29T01:48:15.374Z,2.00
2019-05-29T01:49:50.983Z,1.93
2019-05-29T01:51:28.040Z,1.70
2019-05-29T01:53:03.615Z,1.70
2019-05-29T01:54:39.916Z,1.60
2019-05-29T01:56:15.568Z,1.80
2019-05-29T01:57:53.980Z,1.70
2019-05-29T01:59:29.502Z,1.67
2019-05-29T02:01:06.080Z,1.75
2019-05-29T02:02:41.587Z,1.70
2019-05-29T02:04:17.914Z,1.50
2019-05-29T02:05:53.713Z,1.60
2019-05-29T02:07:30.063Z,1.60
2019-05-29T02:09:07.582Z,1.50
2019-05-29T02:10:43.891Z,1.60
2019-05-29T02:12:20.729Z,1.50
2019-05-29T02:13:57.454Z,1.50
2019-05-29T02:15:34.136Z,1.52
2019-05-29T02:17:11.600Z,1.83
2019-05-29T02:18:48.119Z,1.60
2019-05-29T02:20:25.232Z,1.73
2019-05-29T02:22:00.900Z,1.90
2019-05-29T02:23:37.208Z,2.00
2019-05-29T02:25:15.847Z,1.90
2019-05-29T02:26:50.801Z,1.80
2019-05-29T02:28:26.834Z,2.00
2019-05-29T02:30:03.259Z,1.92
2019-05-29T02:31:38.782Z,2.00
2019-05-29T02:33:15.151Z,1.93
2019-05-29T02:34:50.676Z,1.63
2019-05-29T02:36:28.590Z,1.67
2019-05-29T02:38:04.382Z,1.75
2019-05-29T02:39:40.693Z,1.83
2019-05-29T02:41:16.223Z,1.80
2019-05-29T02:42:54.250Z,1.93
2019-05-29T02:44:29.836Z,1.72
2019-05-29T02:46:06.154Z,1.60
2019-05-29T02:47:41.777Z,1.70
2019-05-29T02:49:19.735Z,1.80
2019-05-29T02:50:55.378Z,1.90
2019-05-29T02:52:31.697Z,1.77
2019-05-29T02:54:07.217Z,2.00
2019-05-29T02:55:44.759Z,2.20
2019-05-29T02:57:20.709Z,2.13
2019-05-29T02:58:57.153Z,2.30
2019-05-29T03:00:53.847Z,2.02
2019-05-29T03:02:31.884Z,1.98
2019-05-29T03:04:07.407Z,1.93
2019-05-29T03:05:43.978Z,2.30
2019-05-29T03:07:19.709Z,2.00
2019-05-29T03:08:56.393Z,2.10
2019-05-29T03:10:33.112Z,1.90
2019-05-29T03:12:09.589Z,2.00
2019-05-29T03:13:52.608Z,2.07
2019-05-29T03:15:33.924Z,1.80
2019-05-29T03:17:31.908Z,2.10
2019-05-29T03:19:10.141Z,2.02
2019-05-29T03:20:46.130Z,1.93
2019-05-29T03:22:28.812Z,2.00
2019-05-29T03:24:16.600Z,1.80
2019-05-29T03:26:25.290Z,2.20
2019-05-29T03:28:01.471Z,1.93
2019-05-29T03:29:38.537Z,2.35
2019-05-29T03:31:23.729Z,2.10
2019-05-29T03:33:06.766Z,1.82
2019-05-29T03:34:52.939Z,2.10
2019-05-29T03:36:37.921Z,1.90
2019-05-29T03:38:18.309Z,2.12
2019-05-29T03:40:03.014Z,1.90
2019-05-29T03:41:40.391Z,1.80
2019-05-29T03:43:28.647Z,2.20
2019-05-29T03:45:09.566Z,1.92
2019-05-29T03:46:47.745Z,1.90
2019-05-29T03:48:38.456Z,1.70
2019-05-29T03:50:31.178Z,1.82
2019-05-29T03:52:03.373Z,2.20
2019-05-29T03:53:42.108Z,1.90
2019-05-29T03:55:31.473Z,1.90
2019-05-29T03:57:11.725Z,1.98
2019-05-29T03:58:56.031Z,2.10
2019-05-29T04:00:45.890Z,2.08
2019-05-29T04:02:22.365Z,2.33
2019-05-29T04:04:14.346Z,2.10
2019-05-29T04:05:49.630Z,2.30
2019-05-29T04:07:35.539Z,1.97
2019-05-29T04:09:37.352Z,2.00
2019-05-29T04:11:02.703Z,2.17
2019-05-29T04:12:39.168Z,2.00
2019-05-29T04:14:14.684Z,2.00
2019-05-29T04:15:51.159Z,2.30
2019-05-29T04:17:29.698Z,2.27
2019-05-29T04:19:06.878Z,1.80
2019-05-29T04:20:45.017Z,1.90
2019-05-29T04:22:25.712Z,2.10
2019-05-29T04:24:06.208Z,1.80
2019-05-29T04:25:43.273Z,1.85
2019-05-29T04:27:23.707Z,1.83
2019-05-29T04:29:00.495Z,1.70
2019-05-29T04:30:38.614Z,1.70
2019-05-29T04:32:14.727Z,1.60
2019-05-29T04:33:50.630Z,1.73
2019-05-29T04:35:28.269Z,1.60
2019-05-29T04:37:07.332Z,1.60
2019-05-29T04:38:42.013Z,1.53
2019-05-29T04:40:17.649Z,1.70
2019-05-29T04:41:54.341Z,1.70
2019-05-29T04:43:31.143Z,1.60
2019-05-29T04:45:09.195Z,1.52
2019-05-29T04:46:44.800Z,1.50
2019-05-29T04:48:21.513Z,1.60
2019-05-29T04:49:57.096Z,1.30
2019-05-29T04:51:35.550Z,1.33
2019-05-29T04:53:12.371Z,1.50
2019-05-29T04:54:48.708Z,1.70
2019-05-29T04:56:24.308Z,1.40
2019-05-29T04:58:00.629Z,1.70
2019-05-29T04:59:37.112Z,1.67
2019-05-29T05:01:13.517Z,1.50
2019-05-29T05:02:49.127Z,1.30
2019-05-29T05:04:25.497Z,1.33
2019-05-29T05:06:01.011Z,1.47
2019-05-29T05:07:37.511Z,1.50
2019-05-29T05:09:13.078Z,1.70
2019-05-29T05:10:49.391Z,1.40
2019-05-29T05:12:24.915Z,1.40
2019-05-29T05:14:01.923Z,1.40
2019-05-29T05:15:38.400Z,1.52
2019-05-29T05:17:25.901Z,1.60
2019-05-29T05:18:51.946Z,1.70
2019-05-29T05:20:28.271Z,1.70
2019-05-29T05:22:03.789Z,1.97
2019-05-29T05:23:40.653Z,1.80
2019-05-29T05:25:16.570Z,1.83
2019-05-29T05:26:52.905Z,1.50
2019-05-29T05:28:28.488Z,1.47
2019-05-29T05:30:08.758Z,1.60
2019-05-29T05:31:43.128Z,1.80
2019-05-29T05:33:19.446Z,1.60
2019-05-29T05:34:55.048Z,1.70
2019-05-29T05:36:32.573Z,1.90
2019-05-29T05:38:09.169Z,1.90
2019-05-29T05:39:45.479Z,1.90
2019-05-29T05:41:21.018Z,2.12
2019-05-29T05:42:57.564Z,2.10
2019-05-29T05:44:33.163Z,1.83
2019-05-29T05:46:09.769Z,1.90
2019-05-29T05:47:57.022Z,1.80
2019-05-29T05:49:23.555Z,1.90
2019-05-29T05:50:59.146Z,1.80
2019-05-29T05:52:35.486Z,1.80
2019-05-29T05:54:11.026Z,1.93
2019-05-29T05:55:48.410Z,1.70
2019-05-29T05:57:23.923Z,1.90
2019-05-29T05:59:00.233Z,2.10
2019-05-29T06:00:38.004Z,1.73
2019-05-29T06:02:14.408Z,1.63
2019-05-29T06:03:49.968Z,1.90
2019-05-29T06:05:26.242Z,1.90
2019-05-29T06:07:01.751Z,1.90
2019-05-29T06:08:38.300Z,2.00
2019-05-29T06:10:14.061Z,1.90
2019-05-29T06:11:50.373Z,1.70
2019-05-29T06:13:25.886Z,1.87
2019-05-29T06:15:02.209Z,1.90
2019-05-29T06:16:38.634Z,2.00
2019-05-29T06:18:21.171Z,1.80
2019-05-29T06:19:52.589Z,1.90
2019-05-29T06:21:28.894Z,2.17
2019-05-29T06:23:04.671Z,1.80
2019-05-29T06:24:41.070Z,1.80
2019-05-29T06:26:16.598Z,1.90
2019-05-29T06:27:52.924Z,1.90
2019-05-29T06:29:28.794Z,1.93
2019-05-29T06:31:06.169Z,1.82
2019-05-29T06:32:41.743Z,1.90
2019-05-29T06:34:18.309Z,1.70
2019-05-29T06:35:53.827Z,1.65
2019-05-29T06:37:30.134Z,1.70
2019-05-29T06:39:07.706Z,1.73
2019-05-29T06:40:46.012Z,1.90
2019-05-29T06:42:21.666Z,1.67
2019-05-29T06:44:00.723Z,1.80
2019-05-29T06:45:37.891Z,1.33
2019-05-29T06:47:14.164Z,1.57
2019-05-29T06:48:59.441Z,1.70
2019-05-29T06:50:27.698Z,1.93
2019-05-29T06:52:03.275Z,1.70
2019-05-29T06:53:39.872Z,1.80
2019-05-29T06:55:15.394Z,1.80
2019-05-29T06:56:51.699Z,1.75
2019-05-29T06:58:27.291Z,1.70
2019-05-29T07:00:04.313Z,1.97
2019-05-29T07:01:39.818Z,1.90
2019-05-29T07:03:16.368Z,1.90
2019-05-29T07:04:51.908Z,1.60
2019-05-29T07:06:28.219Z,1.70
2019-05-29T07:08:18.658Z,2.17
2019-05-29T07:09:42.990Z,2.00
2019-05-29T07:11:18.634Z,1.90
2019-05-29T07:12:54.927Z,2.07
2019-05-29T07:14:30.445Z,1.90
2019-05-29T07:16:07.528Z,1.90
2019-05-29T07:17:44.490Z,2.02
2019-05-29T07:19:32.755Z,1.90
2019-05-29T07:20:58.075Z,2.10
2019-05-29T07:22:34.367Z,2.10
2019-05-29T07:24:09.906Z,2.10
2019-05-29T07:25:47.422Z,1.98
2019-05-29T07:27:23.443Z,2.00
2019-05-29T07:29:08.091Z,1.97
2019-05-29T07:30:39.163Z,2.10
2019-05-29T07:32:15.630Z,2.07
2019-05-29T07:33:51.426Z,1.70
2019-05-29T07:35:27.797Z,2.00
2019-05-29T07:37:03.318Z,1.90
2019-05-29T07:38:44.433Z,2.17
2019-05-29T07:40:19.114Z,2.00
2019-05-29T07:41:55.416Z,1.87
2019-05-29T07:43:31.020Z,1.80
2019-05-29T07:45:09.762Z,2.20
2019-05-29T07:46:46.961Z,1.80
2019-05-29T07:48:23.294Z,1.98
2019-05-29T07:49:58.849Z,2.00
2019-05-29T07:51:35.180Z,1.70
2019-05-29T07:53:10.708Z,1.90
2019-05-29T07:54:48.047Z,2.03
2019-05-29T07:56:23.710Z,1.90
2019-05-29T07:58:00.088Z,1.73
2019-05-29T07:59:35.851Z,1.70
2019-05-29T08:01:13.787Z,1.80
2019-05-29T08:02:50.544Z,1.80
2019-05-29T08:04:26.900Z,1.77
2019-05-29T08:06:02.719Z,1.70
2019-05-29T08:07:41.428Z,1.60
2019-05-29T08:09:17.084Z,1.40
2019-05-29T08:10:53.382Z,1.60
2019-05-29T08:12:28.905Z,1.60
2019-05-29T08:14:05.281Z,1.60
2019-05-29T08:15:55.022Z,1.37
2019-05-29T08:17:19.065Z,1.70
2019-05-29T08:18:54.760Z,1.47
2019-05-29T08:20:31.071Z,1.70
2019-05-29T08:22:06.654Z,1.90
2019-05-29T08:23:44.262Z,1.50
2019-05-29T08:25:21.065Z,1.30
2019-05-29T08:26:57.399Z,1.70
2019-05-29T08:28:32.959Z,1.60
2019-05-29T08:30:11.206Z,1.40
2019-05-29T08:31:47.010Z,1.40
2019-05-29T08:33:23.311Z,1.30
2019-05-29T08:34:59.076Z,1.22
2019-05-29T08:36:35.429Z,1.73
2019-05-29T08:38:11.056Z,1.40
2019-05-29T08:39:47.659Z,1.37
2019-05-29T08:41:23.167Z,1.40
2019-05-29T08:42:59.475Z,1.30
2019-05-29T08:44:35.011Z,1.50
2019-05-29T08:46:12.636Z,1.40
2019-05-29T08:47:48.155Z,1.32
2019-05-29T08:49:24.467Z,1.40
2019-05-29T08:50:59.979Z,1.30
2019-05-29T08:52:36.281Z,1.50
2019-05-29T08:54:23.586Z,1.50
2019-05-29T08:55:50.828Z,1.40
2019-05-29T08:57:26.402Z,1.60
2019-05-29T08:59:02.695Z,1.30
2019-05-29T09:00:38.581Z,1.27
2019-05-29T09:02:15.015Z,1.30
2019-05-29T09:03:51.238Z,1.65
2019-05-29T09:05:27.763Z,1.50
2019-05-29T09:07:03.365Z,1.30
2019-05-29T09:08:39.899Z,1.40
2019-05-29T09:10:16.083Z,1.50
2019-05-29T09:11:53.868Z,1.40
2019-05-29T09:13:29.614Z,1.30
2019-05-29T09:15:11.001Z,1.40
2019-05-29T09:16:46.642Z,1.50
2019-05-29T09:18:25.503Z,1.50
2019-05-29T09:20:00.321Z,1.50
2019-05-29T09:21:36.624Z,1.40
2019-05-29T09:23:12.988Z,1.57
2019-05-29T09:24:49.296Z,1.67
2019-05-29T09:26:26.061Z,1.67
2019-05-29T09:28:02.837Z,1.80
2019-05-29T09:29:38.404Z,1.45
2019-05-29T09:31:15.565Z,1.70
2019-05-29T09:32:53.141Z,1.77
2019-05-29T09:34:29.661Z,1.80
2019-05-29T09:36:05.435Z,1.55
2019-05-29T09:37:41.762Z,1.87
2019-05-29T09:39:18.393Z,1.72
2019-05-29T09:40:55.537Z,1.80
2019-05-29T09:42:31.077Z,1.77
2019-05-29T09:44:07.629Z,1.52
2019-05-29T09:45:44.739Z,1.60
2019-05-29T09:47:22.222Z,1.52
2019-05-29T09:49:01.317Z,1.55
2019-05-29T09:50:49.363Z,1.60
2019-05-29T09:52:15.010Z,1.50
2019-05-29T09:53:52.506Z,1.57
2019-05-29T09:55:28.536Z,1.63
2019-05-29T09:57:05.335Z,1.60
2019-05-29T09:58:40.968Z,1.47
2019-05-29T10:00:17.513Z,1.60
2019-05-29T10:01:54.672Z,1.70
2019-05-29T10:03:31.046Z,1.50
2019-05-29T10:05:10.638Z,1.50
2019-05-29T10:06:47.166Z,1.60
2019-05-29T10:08:22.686Z,1.47
2019-05-29T10:10:00.549Z,1.80
2019-05-29T10:11:36.293Z,1.70
2019-05-29T10:13:12.621Z,1.80
2019-05-29T10:14:51.196Z,2.02
2019-05-29T10:16:26.133Z,2.25
2019-05-29T10:18:02.732Z,1.73
2019-05-29T10:19:39.763Z,2.02
2019-05-29T10:21:15.313Z,1.55
2019-05-29T10:22:51.639Z,1.67
2019-05-29T10:24:27.159Z,1.50
2019-05-29T10:26:04.739Z,1.90
2019-05-29T10:27:40.698Z,1.60
2019-05-29T10:29:17.059Z,1.62
2019-05-29T10:30:52.858Z,1.76
2019-05-29T10:32:29.468Z,1.60
2019-05-29T10:34:04.977Z,1.50
2019-05-29T10:35:42.598Z,1.67
2019-05-29T10:37:18.529Z,1.52
2019-05-29T10:38:55.845Z,1.45
2019-05-29T10:40:31.449Z,1.70
2019-05-29T10:42:07.804Z,1.77
2019-05-29T10:43:43.368Z,1.57
2019-05-29T10:45:19.992Z,1.70
2019-05-29T10:46:56.551Z,1.50
2019-05-29T10:48:33.195Z,1.52
2019-05-29T10:50:12.032Z,1.67
2019-05-29T10:52:05.510Z,1.44
2019-05-29T10:53:27.910Z,1.92
2019-05-29T10:55:08.833Z,1.75
2019-05-29T10:56:46.848Z,1.77
2019-05-29T10:58:22.558Z,1.80
2019-05-29T10:59:58.814Z,1.75
2019-05-29T11:01:34.331Z,1.57
2019-05-29T11:03:11.633Z,1.70
2019-05-29T11:04:51.570Z,1.62
2019-05-29T11:06:25.234Z,1.62
2019-05-29T11:08:00.775Z,1.60
2019-05-29T11:09:44.665Z,1.50
2019-05-29T11:11:14.538Z,1.60
2019-05-29T11:12:50.839Z,1.50
2019-05-29T11:14:26.395Z,1.50
2019-05-29T11:16:02.688Z,1.50
2019-05-29T11:17:38.226Z,1.60
2019-05-29T11:19:14.536Z,1.65
2019-05-29T11:20:51.296Z,1.40
2019-05-29T11:22:27.645Z,1.60
2019-05-29T11:24:03.191Z,1.63
2019-05-29T11:25:39.498Z,1.40
2019-05-29T11:27:15.031Z,1.50
2019-05-29T11:28:52.396Z,1.50
2019-05-29T11:30:27.961Z,1.37
2019-05-29T11:32:04.326Z,1.40
2019-05-29T11:33:39.947Z,1.30
2019-05-29T11:35:16.505Z,1.50
2019-05-29T11:36:52.044Z,1.32
2019-05-29T11:38:28.412Z,1.40
2019-05-29T11:40:05.288Z,1.57
2019-05-29T11:41:41.580Z,1.32
2019-05-29T11:43:17.103Z,1.40
2019-05-29T11:44:53.934Z,1.65
2019-05-29T11:46:30.834Z,1.67
2019-05-29T11:48:07.214Z,1.40
2019-05-29T11:49:42.780Z,1.40
2019-05-29T11:51:19.098Z,1.50
2019-05-29T11:52:54.673Z,1.40
2019-05-29T11:54:32.155Z,1.67
2019-05-29T11:56:08.075Z,1.37
2019-05-29T11:57:44.344Z,1.60
2019-05-29T11:59:21.201Z,1.60
2019-05-29T12:00:57.502Z,1.30
2019-05-29T12:02:33.602Z,1.30
2019-05-29T12:04:24.230Z,1.45
2019-05-29T12:05:47.330Z,1.37
2019-05-29T12:07:23.621Z,1.50
2019-05-29T12:08:59.845Z,1.60
2019-05-29T12:10:37.800Z,1.40
2019-05-29T12:12:14.415Z,1.42
2019-05-29T12:13:51.710Z,1.50
2019-05-29T12:15:27.481Z,1.36
2019-05-29T12:17:04.085Z,1.40
2019-05-29T12:18:39.721Z,1.40
2019-05-29T12:20:27.910Z,1.40
2019-05-29T12:21:56.346Z,1.27
2019-05-29T12:23:32.789Z,1.50
2019-05-29T12:25:08.707Z,1.30
2019-05-29T12:26:45.030Z,1.32
2019-05-29T12:28:20.572Z,1.40
2019-05-29T12:29:56.912Z,1.40
2019-05-29T12:31:32.676Z,1.02
2019-05-29T12:33:09.221Z,1.17
2019-05-29T12:34:53.252Z,1.27
2019-05-29T12:36:23.038Z,1.45
2019-05-29T12:37:59.431Z,1.17
2019-05-29T12:39:36.091Z,1.30
2019-05-29T12:41:11.920Z,1.20
2019-05-29T12:42:48.280Z,1.40
2019-05-29T12:44:25.096Z,1.20
2019-05-29T12:46:01.901Z,1.10
2019-05-29T12:47:37.546Z,1.27
2019-05-29T12:49:13.857Z,1.35
2019-05-29T12:50:49.412Z,1.02
2019-05-29T12:52:26.759Z,0.98
2019-05-29T12:54:02.423Z,1.17
2019-05-29T12:55:38.864Z,1.07
2019-05-29T12:57:14.366Z,1.20
2019-05-29T12:58:51.598Z,1.20
2019-05-29T13:00:27.622Z,1.20
2019-05-29T13:02:04.698Z,1.20
2019-05-29T13:03:40.521Z,1.30
2019-05-29T13:05:20.493Z,1.30
2019-05-29T13:06:54.749Z,1.10
2019-05-29T13:08:31.307Z,1.25
2019-05-29T13:10:08.855Z,1.10
2019-05-29T13:11:45.189Z,1.25
2019-05-29T13:13:20.692Z,1.10
2019-05-29T13:14:58.597Z,1.00
2019-05-29T13:16:34.158Z,1.10
2019-05-29T13:18:10.495Z,1.35
2019-05-29T13:19:45.979Z,1.20
2019-05-29T13:21:22.349Z,1.02
2019-05-29T13:22:59.480Z,1.20
2019-05-29T13:24:36.171Z,1.20
2019-05-29T13:26:11.692Z,1.10
2019-05-29T13:27:48.014Z,1.22
2019-05-29T13:29:25.214Z,1.00
2019-05-29T13:31:01.982Z,1.15
2019-05-29T13:32:37.522Z,0.95
2019-05-29T13:34:13.842Z,1.00
2019-05-29T13:35:49.363Z,1.20
2019-05-29T13:37:25.654Z,1.07
2019-05-29T13:39:02.350Z,1.10
2019-05-29T13:40:38.813Z,1.10
2019-05-29T13:42:14.334Z,1.22
2019-05-29T13:43:50.630Z,1.02
2019-05-29T13:45:26.227Z,0.90
2019-05-29T13:47:03.923Z,1.10
2019-05-29T13:48:39.723Z,0.93
2019-05-29T13:50:17.684Z,0.90
2019-05-29T13:51:53.151Z,0.90
2019-05-29T13:53:29.455Z,1.10
2019-05-29T13:55:07.735Z,1.10
2019-05-29T13:56:44.431Z,1.10
2019-05-29T13:58:20.165Z,1.10
2019-05-29T13:59:57.822Z,1.10
2019-05-29T14:01:33.485Z,1.00
2019-05-29T14:03:09.739Z,0.90
2019-05-29T14:04:45.273Z,1.12
2019-05-29T14:06:21.558Z,0.90
2019-05-29T14:07:58.452Z,1.10
2019-05-29T14:09:34.937Z,0.93
2019-05-29T14:11:10.460Z,1.00
2019-05-29T14:12:47.109Z,0.72
2019-05-29T14:14:22.606Z,1.17
2019-05-29T14:16:00.447Z,1.10
2019-05-29T14:17:36.258Z,1.30
2019-05-29T14:19:13.558Z,1.15
2019-05-29T14:20:49.350Z,0.90
2019-05-29T14:22:25.709Z,1.20
2019-05-29T14:24:13.779Z,1.05
2019-05-29T14:25:40.752Z,0.90
2019-05-29T14:27:16.499Z,1.10
2019-05-29T14:28:52.791Z,1.00
2019-05-29T14:30:28.556Z,1.30
2019-05-29T14:32:05.124Z,0.90
2019-05-29T14:33:41.092Z,0.80
2019-05-29T14:35:17.543Z,1.10
2019-05-29T14:36:53.028Z,1.00
2019-05-29T14:38:29.351Z,0.90
2019-05-29T14:40:07.960Z,0.95
2019-05-29T14:41:44.336Z,0.90
2019-05-29T14:43:19.887Z,0.85
2019-05-29T14:44:56.169Z,0.80
2019-05-29T14:46:31.725Z,1.05
2019-05-29T14:48:08.230Z,1.00
2019-05-29T14:49:43.804Z,1.00
2019-05-29T14:51:20.117Z,1.07
2019-05-29T14:52:55.612Z,0.90
2019-05-29T14:54:41.240Z,0.80
2019-05-29T14:56:09.126Z,0.80
2019-05-29T14:57:45.467Z,1.20
2019-05-29T14:59:22.110Z,1.00
2019-05-29T15:00:58.364Z,0.90
2019-05-29T15:02:33.902Z,0.90
2019-05-29T15:04:10.848Z,0.98
2019-05-29T15:05:47.363Z,1.07
2019-05-29T15:07:24.096Z,1.02
2019-05-29T15:08:59.648Z,1.20
2019-05-29T15:10:36.211Z,1.20
2019-05-29T15:12:12.143Z,1.20
2019-05-29T15:13:48.551Z,1.10
2019-05-29T15:15:24.126Z,1.00
2019-05-29T15:17:00.418Z,0.80
2019-05-29T15:18:36.264Z,1.02
2019-05-29T15:20:16.180Z,0.90
2019-05-29T15:21:51.285Z,1.02
2019-05-29T15:23:27.583Z,1.00
2019-05-29T15:25:12.328Z,1.07
2019-05-29T15:26:41.610Z,1.00
2019-05-29T15:28:17.955Z,1.20
2019-05-29T15:29:54.396Z,0.95
2019-05-29T15:31:29.913Z,1.42
2019-05-29T15:33:06.392Z,1.40
2019-05-29T15:34:42.182Z,1.40
2019-05-29T15:36:18.482Z,1.50
2019-05-29T15:37:53.985Z,1.62
2019-05-29T15:39:30.324Z,2.40
2019-05-29T15:41:06.616Z,2.65
2019-05-29T15:42:43.091Z,1.80
2019-05-29T15:44:18.599Z,1.20
2019-05-29T15:45:54.936Z,0.90
2019-05-29T15:47:30.462Z,0.88
2019-05-29T15:49:06.862Z,1.10
2019-05-29T15:50:42.411Z,1.32
2019-05-29T15:52:18.788Z,1.22
2019-05-29T15:53:54.307Z,0.90
2019-05-29T15:55:34.652Z,0.90
2019-05-29T15:57:08.956Z,1.00
2019-05-29T15:58:46.358Z,0.90
2019-05-29T16:00:22.933Z,1.10
2019-05-29T16:01:59.292Z,0.95
2019-05-29T16:03:35.155Z,0.90
2019-05-29T16:05:13.165Z,1.12
2019-05-29T16:06:48.954Z,1.00
2019-05-29T16:08:25.251Z,0.90
2019-05-29T16:10:00.754Z,0.93
2019-05-29T16:11:37.508Z,1.50
2019-05-29T16:13:13.036Z,1.42
2019-05-29T16:14:49.367Z,1.07
2019-05-29T16:16:24.848Z,1.00
2019-05-29T16:18:01.152Z,1.02
2019-05-29T16:19:36.659Z,1.00
2019-05-29T16:21:12.972Z,1.00
2019-05-29T16:22:50.382Z,1.00
2019-05-29T16:24:28.289Z,1.00
2019-05-29T16:26:03.794Z,1.02
2019-05-29T16:27:40.100Z,1.02
2019-05-29T16:29:17.682Z,0.95
2019-05-29T16:30:53.859Z,0.82
2019-05-29T16:32:29.390Z,1.90
2019-05-29T16:34:05.828Z,2.20
2019-05-29T16:35:41.326Z,1.40
2019-05-29T16:37:17.669Z,1.20
2019-05-29T16:38:53.207Z,0.95
2019-05-29T16:40:30.735Z,1.90
2019-05-29T16:42:06.253Z,2.50
2019-05-29T16:43:42.816Z,2.77
2019-05-29T16:45:20.326Z,2.30
2019-05-29T16:46:57.859Z,2.25
2019-05-29T16:48:33.410Z,2.00
2019-05-29T16:50:12.980Z,1.50
2019-05-29T16:51:48.587Z,1.20
2019-05-29T16:53:25.936Z,0.90
2019-05-29T16:55:01.532Z,0.90
2019-05-29T16:56:37.927Z,1.00
2019-05-29T16:58:13.462Z,0.85
2019-05-29T16:59:49.774Z,0.90
2019-05-29T17:01:25.263Z,0.80
2019-05-29T17:03:01.563Z,0.90
2019-05-29T17:04:37.126Z,1.05
2019-05-29T17:06:13.695Z,0.93
2019-05-29T17:07:49.320Z,1.07
2019-05-29T17:09:25.888Z,1.05
2019-05-29T17:11:04.656Z,1.00
2019-05-29T17:12:39.415Z,1.00
2019-05-29T17:14:15.021Z,1.02
2019-05-29T17:15:51.309Z,0.90
2019-05-29T17:17:30.323Z,1.10
2019-05-29T17:19:04.881Z,0.80
2019-05-29T17:20:46.763Z,0.90
2019-05-29T17:22:23.047Z,0.90
2019-05-29T17:23:59.396Z,1.10
2019-05-29T17:25:35.677Z,0.90
2019-05-29T17:27:11.226Z,1.07
2019-05-29T17:28:47.519Z,0.97
2019-05-29T17:30:27.736Z,0.93
2019-05-29T17:32:04.031Z,0.90
2019-05-29T17:33:39.541Z,0.90
2019-05-29T17:35:17.248Z,0.98
2019-05-29T17:36:53.186Z,0.90
2019-05-29T17:38:29.486Z,1.00
2019-05-29T17:40:07.500Z,0.90
2019-05-29T17:41:48.414Z,0.90
2019-05-29T17:43:28.781Z,1.00
2019-05-29T17:45:08.057Z,0.90
2019-05-29T17:46:46.433Z,1.03
2019-05-29T17:48:21.991Z,0.90
2019-05-29T17:50:02.792Z,1.00
2019-05-29T17:51:39.428Z,0.90
2019-05-29T17:53:17.715Z,1.10
2019-05-29T17:54:53.526Z,1.13
2019-05-29T17:56:36.691Z,0.90
2019-05-29T17:58:15.773Z,0.90
2019-05-29T17:59:51.622Z,1.17
2019-05-29T18:01:30.546Z,0.93
2019-05-29T18:03:05.849Z,1.00
2019-05-29T18:04:41.608Z,1.10
2019-05-29T18:06:18.336Z,1.30
2019-05-29T18:07:54.088Z,1.30
2019-05-29T18:09:31.959Z,1.20
2019-05-29T18:11:07.716Z,1.27
2019-05-29T18:12:43.995Z,1.40
2019-05-29T18:14:19.571Z,1.13
2019-05-29T18:15:55.865Z,1.10
2019-05-29T18:17:35.542Z,1.10
2019-05-29T18:19:12.010Z,1.03
2019-05-29T18:20:47.570Z,1.10
2019-05-29T18:22:23.984Z,1.10
2019-05-29T18:24:00.590Z,0.97
2019-05-29T18:25:37.014Z,1.10
2019-05-29T18:27:12.520Z,1.17
2019-05-29T18:28:55.090Z,1.00
2019-05-29T18:30:31.552Z,0.90
2019-05-29T18:32:07.894Z,0.90
2019-05-29T18:33:45.124Z,1.00
2019-05-29T18:35:22.821Z,1.00
2019-05-29T18:37:05.199Z,0.90
2019-05-29T18:38:41.831Z,1.10
2019-05-29T18:40:18.480Z,1.00
2019-05-29T18:41:54.806Z,1.10
2019-05-29T18:43:30.278Z,1.20
2019-05-29T18:45:20.247Z,1.07
2019-05-29T18:46:47.949Z,1.30
2019-05-29T18:48:25.291Z,1.00
2019-05-29T18:50:01.068Z,1.00
2019-05-29T18:51:37.353Z,0.90
2019-05-29T18:53:12.873Z,1.30
2019-05-29T18:54:49.165Z,1.10
2019-05-29T18:56:26.473Z,1.37
2019-05-29T18:58:02.906Z,1.30
2019-05-29T18:59:38.418Z,1.20
2019-05-29T19:01:14.801Z,1.20
2019-05-29T19:02:50.315Z,1.40
2019-05-29T19:04:27.618Z,1.20
2019-05-29T19:06:03.306Z,1.07
2019-05-29T19:07:39.671Z,1.27
2019-05-29T19:09:15.228Z,1.00
2019-05-29T19:10:51.514Z,1.07
2019-05-29T19:12:27.862Z,1.20
2019-05-29T19:14:04.226Z,0.90
2019-05-29T19:15:39.751Z,1.00
2019-05-29T19:17:16.040Z,0.95
2019-05-29T19:18:51.556Z,1.00
2019-05-29T19:20:28.532Z,1.00
2019-05-29T19:22:05.279Z,1.20
2019-05-29T19:23:41.565Z,1.00
2019-05-29T19:25:17.228Z,1.00
2019-05-29T19:26:53.067Z,1.10
2019-05-29T19:28:28.788Z,1.23
2019-05-29T19:30:09.398Z,1.20
2019-05-29T19:31:44.988Z,1.30
2019-05-29T19:33:21.305Z,1.30
2019-05-29T19:34:57.161Z,1.30
2019-05-29T19:36:34.438Z,1.27
2019-05-29T19:38:11.426Z,1.97
2019-05-29T19:39:48.080Z,1.47
2019-05-29T19:41:23.952Z,1.80
2019-05-29T19:43:01.243Z,1.90
2019-05-29T19:44:36.759Z,2.10
2019-05-29T19:46:13.105Z,2.40
2019-05-29T19:47:48.987Z,2.00
2019-05-29T19:49:25.904Z,2.67
2019-05-29T19:51:02.613Z,2.98
2019-05-29T19:52:39.697Z,2.50
2019-05-29T19:54:15.245Z,2.47
2019-05-29T19:55:51.586Z,2.50
2019-05-29T19:57:28.124Z,2.33
2019-05-29T19:59:04.478Z,2.43
2019-05-29T20:00:40.408Z,2.63
2019-05-29T20:02:16.670Z,2.60
2019-05-29T20:03:52.349Z,2.80
2019-05-29T20:05:28.718Z,2.80
2019-05-29T20:07:04.267Z,2.60
2019-05-29T20:08:40.837Z,2.43
2019-05-29T20:10:16.874Z,2.60
2019-05-29T20:11:53.177Z,2.73
2019-05-29T20:13:29.826Z,2.47
2019-05-29T20:15:09.410Z,2.20
2019-05-29T20:16:48.043Z,2.70
2019-05-29T20:18:24.340Z,2.20
2019-05-29T20:20:00.170Z,2.77
2019-05-29T20:21:36.824Z,3.00
2019-05-29T20:23:12.460Z,3.00
2019-05-29T20:24:48.753Z,2.83
2019-05-29T20:26:27.259Z,2.90
2019-05-29T20:28:06.610Z,2.87
2019-05-29T20:29:40.943Z,3.10
2019-05-29T20:31:17.246Z,3.40
2019-05-29T20:32:52.817Z,3.40
2019-05-29T20:34:29.114Z,3.80
2019-05-29T20:36:04.669Z,3.80
2019-05-29T20:37:42.429Z,3.70
2019-05-29T20:39:18.209Z,3.83
2019-05-29T20:40:54.941Z,3.90
2019-05-29T20:42:30.430Z,3.67
2019-05-29T20:44:06.928Z,3.60
2019-05-29T20:45:42.687Z,3.53
2019-05-29T20:47:19.020Z,3.90
2019-05-29T20:48:54.945Z,3.80
2019-05-29T20:50:31.272Z,3.53
2019-05-29T20:52:06.782Z,3.77
2019-05-29T20:53:43.147Z,3.35
2019-05-29T20:55:18.779Z,3.30
2019-05-29T20:56:56.680Z,3.30
2019-05-29T20:58:32.247Z,3.40
2019-05-29T21:00:17.197Z,3.00
2019-05-29T21:01:53.490Z,3.10
2019-05-29T21:03:29.003Z,3.27
2019-05-29T21:05:07.912Z,3.50
2019-05-29T21:06:43.704Z,3.13
2019-05-29T21:08:19.980Z,3.30
2019-05-29T21:09:55.693Z,3.20
2019-05-29T21:11:33.573Z,2.97
2019-05-29T21:13:09.104Z,3.20
2019-05-29T21:14:45.593Z,3.50
2019-05-29T21:16:23.320Z,3.33
2019-05-29T21:18:00.097Z,3.40
2019-05-29T21:19:36.428Z,3.17
2019-05-29T21:21:12.770Z,3.90
2019-05-29T21:22:50.039Z,3.27
2019-05-29T21:37:12.498Z,3.70
2019-05-29T21:38:48.782Z,3.20
2019-05-29T21:40:24.425Z,3.70
2019-05-29T21:42:02.111Z,4.20
2019-05-29T21:43:38.635Z,4.13